Arlington, NJ

2:05 PM EDT on June 02, 2015 (GMT -0400)
APRSWXNET KEARNY, NJ | | Change Station
CLOSE
Current Station
Personal Weather Station
Location: Kearny, NJ
Elevation: 98 ft
Nearby Weather Stations

Elev 98 ft 40.77 °N, 74.14 °W | Updated 1 second ago

Rain
Rain
53.6 °F
Feels Like 53.6 °F
N
2.7
Wind Variable Wind from SSW
Gusts 2.7 mph

Today
High -- | Low -- °F
--% Chance of Precip.
Yesterday
High -- | Low -- °F
Precip. -- in
5:27 AM 8:22 PM
Full, 100% visible
Pressure 30.14 in
Visibility 9.0 miles
Clouds Mostly Cloudy 1000 ft
Overcast 1800 ft
Dew Point 50 °F
Humidity 87%
Rainfall 1.41 in
Snow Depth Not available.
UV 3 out of 12
Pollen .90 out of 12
Air Quality Not available.
Flu Activity Sporadic
METAR KEWR 021751Z COR 02009KT 9SM -RA BKN010 OVC018 14/11 A3014 RMK AO2 SLP206 60003 T01390111 10139 20111 57003 $

More Conditions Fewer Conditions

Pressure 30.14 in
Visibility 9.0 miles
Clouds Mostly Cloudy 1000 ft
Overcast 1800 ft
Dew Point 50 °F
Humidity 87%
Rainfall 1.41 in
Snow Depth Not available.
UV 3 out of 12
Pollen .90 out of 12
Air Quality Not available.
Flu Activity Sporadic
METAR KEWR 021751Z COR 02009KT 9SM -RA BKN010 OVC018 14/11 A3014 RMK AO2 SLP206 60003 T01390111 10139 20111 57003 $

More Conditions Fewer Conditions

10-Day Weather Forecast

×

Almanac

Astronomy

Jun. 02, 2015 Rise Set
Actual Time
Civil Twilight
Nautical Twilight
Astronomical Twilight
Moon
Length of Visible Light
Length of Day
Tomorrow will be .
, % of the Moon is Illuminated

Today's Extremes

State Highs State Lows

Community

WunderPhotos

Upload Photos

1,825,991 photos uploaded!

WunderBlogs® & News

Nearby

Air Quality

  Air Quality AQ Index Pollutant
Not available.

Snow Depth

Station Depth Elevation

Earthquake Activity

City Distance Mag. Time & Date
Minimum magnitude displayed is 2.5.

Coastal Water Temperatures

Place Temperature

Stations

Nearby Weather Stations

Station Location Temp. Windchill Dew Point Humidity Wind Precip. Elev Updated Type